sensor_id;sensor_type;location;lat;lon;timestamp;noise_LAeq;noise_LA_min;noise_LA_max;noise_LA01;noise_LA95
76767;Laerm;65707;52.362;6.588;2023-03-07T00:00:17;39.67;32.27;61.63;;
76767;Laerm;65707;52.362;6.588;2023-03-07T00:02:50;40.74;34.05;60.32;;
76767;Laerm;65707;52.362;6.588;2023-03-07T00:05:17;40.41;32.72;59.17;;
76767;Laerm;65707;52.362;6.588;2023-03-07T00:07:44;40.24;33.58;57.49;;
76767;Laerm;65707;52.362;6.588;2023-03-07T00:10:11;41.57;34.84;62.49;;
76767;Laerm;65707;52.362;6.588;2023-03-07T00:12:39;39.56;33.82;57.70;;
76767;Laerm;65707;52.362;6.588;2023-03-07T00:15:07;40.98;33.90;61.73;;
76767;Laerm;65707;52.362;6.588;2023-03-07T00:17:35;39.33;34.60;53.41;;
76767;Laerm;65707;52.362;6.588;2023-03-07T00:20:02;41.06;34.23;61.35;;
76767;Laerm;65707;52.362;6.588;2023-03-07T00:22:31;44.92;35.38;68.68;;
76767;Laerm;65707;52.362;6.588;2023-03-07T00:24:58;45.99;35.00;65.26;;
76767;Laerm;65707;52.362;6.588;2023-03-07T00:27:25;45.83;33.77;68.28;;
76767;Laerm;65707;52.362;6.588;2023-03-07T00:29:53;42.88;33.21;67.09;;
76767;Laerm;65707;52.362;6.588;2023-03-07T00:32:20;43.51;33.60;63.18;;
76767;Laerm;65707;52.362;6.588;2023-03-07T00:34:47;40.33;33.32;63.26;;
76767;Laerm;65707;52.362;6.588;2023-03-07T00:37:17;44.38;35.33;67.87;;
76767;Laerm;65707;52.362;6.588;2023-03-07T00:39:43;43.06;33.32;64.28;;
76767;Laerm;65707;52.362;6.588;2023-03-07T00:42:10;48.72;33.67;73.60;;
76767;Laerm;65707;52.362;6.588;2023-03-07T00:44:37;50.20;33.75;73.46;;
76767;Laerm;65707;52.362;6.588;2023-03-07T00:47:06;44.29;35.56;63.98;;
76767;Laerm;65707;52.362;6.588;2023-03-07T00:49:33;44.64;33.51;65.70;;
76767;Laerm;65707;52.362;6.588;2023-03-07T00:52:00;41.94;33.14;64.86;;
76767;Laerm;65707;52.362;6.588;2023-03-07T00:54:27;39.87;33.17;60.47;;
76767;Laerm;65707;52.362;6.588;2023-03-07T00:56:54;43.43;33.34;70.65;;
76767;Laerm;65707;52.362;6.588;2023-03-07T00:59:21;38.14;33.02;50.28;;
76767;Laerm;65707;52.362;6.588;2023-03-07T01:01:48;39.03;33.91;58.14;;
76767;Laerm;65707;52.362;6.588;2023-03-07T01:04:16;39.11;34.61;52.16;;
76767;Laerm;65707;52.362;6.588;2023-03-07T01:06:43;38.55;33.58;56.52;;
76767;Laerm;65707;52.362;6.588;2023-03-07T01:09:10;38.41;34.52;47.08;;
76767;Laerm;65707;52.362;6.588;2023-03-07T01:11:38;38.39;34.92;44.71;;
76767;Laerm;65707;52.362;6.588;2023-03-07T01:14:05;38.91;34.41;50.49;;
76767;Laerm;65707;52.362;6.588;2023-03-07T01:16:34;41.40;35.61;51.45;;
76767;Laerm;65707;52.362;6.588;2023-03-07T01:19:04;38.93;34.48;53.54;;
76767;Laerm;65707;52.362;6.588;2023-03-07T01:21:35;39.43;34.24;56.44;;
76767;Laerm;65707;52.362;6.588;2023-03-07T01:24:03;39.39;34.63;55.49;;
76767;Laerm;65707;52.362;6.588;2023-03-07T01:26:33;39.28;34.31;56.15;;
76767;Laerm;65707;52.362;6.588;2023-03-07T01:29:04;38.65;33.96;49.96;;
76767;Laerm;65707;52.362;6.588;2023-03-07T01:31:31;42.08;35.71;64.10;;
76767;Laerm;65707;52.362;6.588;2023-03-07T01:33:59;71.23;35.57;83.89;;
76767;Laerm;65707;52.362;6.588;2023-03-07T01:36:29;38.75;34.76;45.97;;
76767;Laerm;65707;52.362;6.588;2023-03-07T01:39:00;39.65;34.18;58.99;;
76767;Laerm;65707;52.362;6.588;2023-03-07T01:41:31;39.58;33.92;59.56;;
76767;Laerm;65707;52.362;6.588;2023-03-07T01:43:59;39.29;34.29;50.93;;
76767;Laerm;65707;52.362;6.588;2023-03-07T01:46:41;69.67;35.89;83.79;;
76767;Laerm;65707;52.362;6.588;2023-03-07T01:49:17;41.27;34.23;63.35;;
76767;Laerm;65707;52.362;6.588;2023-03-07T01:51:51;50.10;38.76;72.67;;
76767;Laerm;65707;52.362;6.588;2023-03-07T01:54:24;57.68;40.89;75.26;;
76767;Laerm;65707;52.362;6.588;2023-03-07T01:56:53;47.96;39.16;72.38;;
76767;Laerm;65707;52.362;6.588;2023-03-07T01:59:26;48.96;37.79;75.51;;
76767;Laerm;65707;52.362;6.588;2023-03-07T02:02:03;47.94;37.66;69.68;;
76767;Laerm;65707;52.362;6.588;2023-03-07T02:04:36;49.57;38.90;75.42;;
76767;Laerm;65707;52.362;6.588;2023-03-07T02:07:05;46.28;36.18;74.18;;
76767;Laerm;65707;52.362;6.588;2023-03-07T02:09:37;40.09;35.01;53.80;;
76767;Laerm;65707;52.362;6.588;2023-03-07T02:12:06;41.01;33.83;60.53;;
76767;Laerm;65707;52.362;6.588;2023-03-07T02:14:33;39.41;34.59;57.17;;
76767;Laerm;65707;52.362;6.588;2023-03-07T02:17:00;39.60;35.35;53.76;;
76767;Laerm;65707;52.362;6.588;2023-03-07T02:19:52;40.64;35.46;49.77;;
76767;Laerm;65707;52.362;6.588;2023-03-07T02:22:20;39.75;34.75;58.43;;
76767;Laerm;65707;52.362;6.588;2023-03-07T02:24:53;40.03;35.23;53.74;;
76767;Laerm;65707;52.362;6.588;2023-03-07T02:27:24;40.51;35.94;53.57;;
76767;Laerm;65707;52.362;6.588;2023-03-07T02:29:52;40.75;35.60;58.86;;
76767;Laerm;65707;52.362;6.588;2023-03-07T02:32:19;38.96;34.17;45.82;;
76767;Laerm;65707;52.362;6.588;2023-03-07T02:34:46;38.42;32.11;51.41;;
76767;Laerm;65707;52.362;6.588;2023-03-07T02:37:18;38.78;32.35;60.83;;
76767;Laerm;65707;52.362;6.588;2023-03-07T02:39:47;50.26;33.15;72.06;;
76767;Laerm;65707;52.362;6.588;2023-03-07T02:42:19;70.66;32.86;84.94;;
76767;Laerm;65707;52.362;6.588;2023-03-07T02:44:56;38.35;32.97;46.77;;
76767;Laerm;65707;52.362;6.588;2023-03-07T02:47:26;37.85;31.47;53.33;;
76767;Laerm;65707;52.362;6.588;2023-03-07T02:49:53;38.92;32.70;50.62;;
76767;Laerm;65707;52.362;6.588;2023-03-07T02:52:21;38.42;32.00;49.97;;
76767;Laerm;65707;52.362;6.588;2023-03-07T02:54:48;38.97;33.91;54.78;;
76767;Laerm;65707;52.362;6.588;2023-03-07T02:57:15;38.61;33.07;53.94;;
76767;Laerm;65707;52.362;6.588;2023-03-07T02:59:42;41.84;33.42;69.72;;
76767;Laerm;65707;52.362;6.588;2023-03-07T03:02:10;39.63;34.00;49.02;;
76767;Laerm;65707;52.362;6.588;2023-03-07T03:04:37;41.47;32.82;68.73;;
76767;Laerm;65707;52.362;6.588;2023-03-07T03:07:04;40.38;33.81;64.58;;
76767;Laerm;65707;52.362;6.588;2023-03-07T03:09:31;38.40;32.58;56.64;;
76767;Laerm;65707;52.362;6.588;2023-03-07T03:11:58;39.33;34.54;53.05;;
76767;Laerm;65707;52.362;6.588;2023-03-07T03:14:25;39.03;34.10;54.84;;
76767;Laerm;65707;52.362;6.588;2023-03-07T03:16:52;39.75;33.94;51.95;;
76767;Laerm;65707;52.362;6.588;2023-03-07T03:19:20;40.46;33.01;52.56;;
76767;Laerm;65707;52.362;6.588;2023-03-07T03:21:48;38.39;33.09;54.19;;
76767;Laerm;65707;52.362;6.588;2023-03-07T03:24:15;39.94;33.56;57.99;;
76767;Laerm;65707;52.362;6.588;2023-03-07T03:26:42;40.76;35.82;49.97;;
76767;Laerm;65707;52.362;6.588;2023-03-07T03:29:09;39.67;33.61;56.99;;
76767;Laerm;65707;52.362;6.588;2023-03-07T03:31:39;39.11;34.42;52.25;;
76767;Laerm;65707;52.362;6.588;2023-03-07T03:34:06;39.70;35.18;53.81;;
76767;Laerm;65707;52.362;6.588;2023-03-07T03:36:37;43.83;36.94;54.97;;
76767;Laerm;65707;52.362;6.588;2023-03-07T03:39:04;40.42;34.63;58.99;;
76767;Laerm;65707;52.362;6.588;2023-03-07T03:41:35;39.00;34.25;50.92;;
76767;Laerm;65707;52.362;6.588;2023-03-07T03:44:06;40.32;35.38;61.33;;
76767;Laerm;65707;52.362;6.588;2023-03-07T03:46:34;68.44;35.61;81.20;;
76767;Laerm;65707;52.362;6.588;2023-03-07T03:49:04;42.24;36.13;53.58;;
76767;Laerm;65707;52.362;6.588;2023-03-07T03:51:31;41.55;35.70;57.10;;
76767;Laerm;65707;52.362;6.588;2023-03-07T03:53:59;41.34;34.84;56.46;;
76767;Laerm;65707;52.362;6.588;2023-03-07T03:56:26;69.95;37.85;84.09;;
76767;Laerm;65707;52.362;6.588;2023-03-07T03:58:56;41.23;36.46;65.27;;
76767;Laerm;65707;52.362;6.588;2023-03-07T04:01:26;40.71;36.09;52.14;;
76767;Laerm;65707;52.362;6.588;2023-03-07T04:03:54;40.54;35.11;62.04;;
76767;Laerm;65707;52.362;6.588;2023-03-07T04:06:24;40.97;35.49;61.44;;
76767;Laerm;65707;52.362;6.588;2023-03-07T04:08:54;42.17;36.26;60.40;;
76767;Laerm;65707;52.362;6.588;2023-03-07T04:11:23;59.58;38.86;77.57;;
76767;Laerm;65707;52.362;6.588;2023-03-07T04:13:51;46.12;38.34;61.20;;
76767;Laerm;65707;52.362;6.588;2023-03-07T04:16:19;42.09;35.66;55.93;;
76767;Laerm;65707;52.362;6.588;2023-03-07T04:18:47;42.89;36.39;68.41;;
76767;Laerm;65707;52.362;6.588;2023-03-07T04:21:14;43.40;35.85;62.80;;
76767;Laerm;65707;52.362;6.588;2023-03-07T04:23:41;43.87;36.08;62.46;;
76767;Laerm;65707;52.362;6.588;2023-03-07T04:26:09;45.81;36.98;68.52;;
76767;Laerm;65707;52.362;6.588;2023-03-07T04:28:41;42.80;36.25;58.83;;
76767;Laerm;65707;52.362;6.588;2023-03-07T04:31:12;45.29;37.26;66.67;;
76767;Laerm;65707;52.362;6.588;2023-03-07T04:33:40;45.49;37.33;72.04;;
76767;Laerm;65707;52.362;6.588;2023-03-07T04:36:07;44.11;37.54;59.47;;
76767;Laerm;65707;52.362;6.588;2023-03-07T04:38:34;55.51;38.40;73.52;;
76767;Laerm;65707;52.362;6.588;2023-03-07T04:41:03;58.89;39.21;77.57;;
76767;Laerm;65707;52.362;6.588;2023-03-07T04:43:29;43.14;37.39;65.53;;
76767;Laerm;65707;52.362;6.588;2023-03-07T04:45:57;43.98;39.03;55.33;;
76767;Laerm;65707;52.362;6.588;2023-03-07T04:48:24;43.43;38.67;56.23;;
76767;Laerm;65707;52.362;6.588;2023-03-07T04:50:51;44.01;39.28;52.20;;
76767;Laerm;65707;52.362;6.588;2023-03-07T04:53:19;56.35;38.91;76.74;;
76767;Laerm;65707;52.362;6.588;2023-03-07T04:55:46;45.71;38.95;68.13;;
76767;Laerm;65707;52.362;6.588;2023-03-07T04:58:13;45.54;38.98;56.70;;
76767;Laerm;65707;52.362;6.588;2023-03-07T05:00:41;55.39;39.55;70.88;;
76767;Laerm;65707;52.362;6.588;2023-03-07T05:03:12;45.32;39.27;56.64;;
76767;Laerm;65707;52.362;6.588;2023-03-07T05:05:39;45.76;39.20;56.55;;
76767;Laerm;65707;52.362;6.588;2023-03-07T05:08:06;54.88;40.47;72.16;;
76767;Laerm;65707;52.362;6.588;2023-03-07T05:10:35;54.55;39.67;72.58;;
76767;Laerm;65707;52.362;6.588;2023-03-07T05:13:02;63.50;41.27;80.02;;
76767;Laerm;65707;52.362;6.588;2023-03-07T05:15:29;47.17;39.49;63.62;;
76767;Laerm;65707;52.362;6.588;2023-03-07T05:17:56;46.41;40.27;62.12;;
76767;Laerm;65707;52.362;6.588;2023-03-07T05:20:24;46.81;40.35;62.20;;
76767;Laerm;65707;52.362;6.588;2023-03-07T05:22:52;46.17;40.58;59.49;;
76767;Laerm;65707;52.362;6.588;2023-03-07T05:25:19;59.16;40.24;76.02;;
76767;Laerm;65707;52.362;6.588;2023-03-07T05:27:47;47.96;40.31;60.22;;
76767;Laerm;65707;52.362;6.588;2023-03-07T05:30:14;54.97;41.27;70.25;;
76767;Laerm;65707;52.362;6.588;2023-03-07T05:32:42;50.70;41.58;64.10;;
76767;Laerm;65707;52.362;6.588;2023-03-07T05:35:09;49.89;41.40;65.48;;
76767;Laerm;65707;52.362;6.588;2023-03-07T05:37:38;56.37;41.60;73.82;;
76767;Laerm;65707;52.362;6.588;2023-03-07T05:40:06;53.92;41.31;76.52;;
76767;Laerm;65707;52.362;6.588;2023-03-07T05:42:35;62.02;41.40;78.48;;
76767;Laerm;65707;52.362;6.588;2023-03-07T05:45:04;47.71;40.70;59.78;;
76767;Laerm;65707;52.362;6.588;2023-03-07T05:47:31;47.92;41.52;62.80;;
76767;Laerm;65707;52.362;6.588;2023-03-07T05:49:58;47.80;41.60;61.23;;
76767;Laerm;65707;52.362;6.588;2023-03-07T05:52:24;46.52;41.30;57.27;;
76767;Laerm;65707;52.362;6.588;2023-03-07T05:54:53;55.34;41.63;73.68;;
76767;Laerm;65707;52.362;6.588;2023-03-07T05:57:21;46.25;40.68;62.88;;
76767;Laerm;65707;52.362;6.588;2023-03-07T05:59:48;55.50;42.61;72.66;;
76767;Laerm;65707;52.362;6.588;2023-03-07T06:02:14;47.52;41.08;59.36;;
76767;Laerm;65707;52.362;6.588;2023-03-07T06:04:42;46.46;40.33;67.56;;
76767;Laerm;65707;52.362;6.588;2023-03-07T06:07:11;55.00;41.37;75.77;;
76767;Laerm;65707;52.362;6.588;2023-03-07T06:09:38;58.13;42.53;72.45;;
76767;Laerm;65707;52.362;6.588;2023-03-07T06:12:08;59.97;41.07;76.83;;
76767;Laerm;65707;52.362;6.588;2023-03-07T06:14:36;50.16;41.70;66.17;;
76767;Laerm;65707;52.362;6.588;2023-03-07T06:17:04;51.54;41.67;66.51;;
76767;Laerm;65707;52.362;6.588;2023-03-07T06:19:31;58.67;43.11;78.04;;
76767;Laerm;65707;52.362;6.588;2023-03-07T06:21:58;47.84;42.41;58.97;;
76767;Laerm;65707;52.362;6.588;2023-03-07T06:24:25;56.83;42.74;76.11;;
76767;Laerm;65707;52.362;6.588;2023-03-07T06:26:52;48.76;43.08;60.94;;
76767;Laerm;65707;52.362;6.588;2023-03-07T06:29:20;54.00;42.55;73.08;;
76767;Laerm;65707;52.362;6.588;2023-03-07T06:31:47;54.59;43.09;69.40;;
76767;Laerm;65707;52.362;6.588;2023-03-07T06:34:14;47.21;42.40;55.25;;
76767;Laerm;65707;52.362;6.588;2023-03-07T06:36:40;48.27;43.49;62.00;;
76767;Laerm;65707;52.362;6.588;2023-03-07T06:39:07;56.70;43.45;72.77;;
76767;Laerm;65707;52.362;6.588;2023-03-07T06:41:34;60.42;43.30;77.92;;
76767;Laerm;65707;52.362;6.588;2023-03-07T06:44:01;47.62;41.32;68.87;;
76767;Laerm;65707;52.362;6.588;2023-03-07T06:46:29;49.05;42.86;67.55;;
76767;Laerm;65707;52.362;6.588;2023-03-07T06:48:56;47.00;41.62;63.25;;
76767;Laerm;65707;52.362;6.588;2023-03-07T06:51:23;60.53;42.78;79.20;;
76767;Laerm;65707;52.362;6.588;2023-03-07T06:53:50;56.10;41.85;74.75;;
76767;Laerm;65707;52.362;6.588;2023-03-07T06:56:17;56.26;42.42;71.97;;
76767;Laerm;65707;52.362;6.588;2023-03-07T06:58:43;52.81;43.05;72.14;;
76767;Laerm;65707;52.362;6.588;2023-03-07T07:01:15;49.92;43.26;69.01;;
76767;Laerm;65707;52.362;6.588;2023-03-07T07:03:44;48.65;42.38;62.77;;
76767;Laerm;65707;52.362;6.588;2023-03-07T07:06:11;54.93;41.88;73.36;;
76767;Laerm;65707;52.362;6.588;2023-03-07T07:08:38;54.95;41.44;72.16;;
76767;Laerm;65707;52.362;6.588;2023-03-07T07:11:05;60.55;40.97;77.30;;
76767;Laerm;65707;52.362;6.588;2023-03-07T07:13:31;49.11;42.21;56.57;;
76767;Laerm;65707;52.362;6.588;2023-03-07T07:16:03;48.17;42.35;55.46;;
76767;Laerm;65707;52.362;6.588;2023-03-07T07:18:30;50.57;43.12;67.98;;
76767;Laerm;65707;52.362;6.588;2023-03-07T07:20:58;48.21;42.93;64.59;;
76767;Laerm;65707;52.362;6.588;2023-03-07T07:23:25;62.81;42.36;90.58;;
76767;Laerm;65707;52.362;6.588;2023-03-07T07:25:52;57.77;42.80;73.21;;
76767;Laerm;65707;52.362;6.588;2023-03-07T07:28:22;53.58;44.31;69.83;;
76767;Laerm;65707;52.362;6.588;2023-03-07T07:30:49;53.33;43.67;68.67;;
76767;Laerm;65707;52.362;6.588;2023-03-07T07:33:16;52.47;42.73;70.62;;
76767;Laerm;65707;52.362;6.588;2023-03-07T07:35:43;51.14;42.15;69.57;;
76767;Laerm;65707;52.362;6.588;2023-03-07T07:38:11;54.56;41.28;72.07;;
76767;Laerm;65707;52.362;6.588;2023-03-07T07:40:39;48.02;42.36;60.24;;
76767;Laerm;65707;52.362;6.588;2023-03-07T07:43:06;62.42;43.47;78.83;;
76767;Laerm;65707;52.362;6.588;2023-03-07T07:45:36;60.13;41.75;77.20;;
76767;Laerm;65707;52.362;6.588;2023-03-07T07:48:03;49.11;42.14;65.56;;
76767;Laerm;65707;52.362;6.588;2023-03-07T07:50:30;60.74;41.72;78.40;;
76767;Laerm;65707;52.362;6.588;2023-03-07T07:52:56;47.75;41.44;55.53;;
76767;Laerm;65707;52.362;6.588;2023-03-07T07:55:25;46.82;41.16;55.14;;
76767;Laerm;65707;52.362;6.588;2023-03-07T07:57:52;55.08;42.14;73.86;;
76767;Laerm;65707;52.362;6.588;2023-03-07T08:00:19;55.94;41.77;71.40;;
76767;Laerm;65707;52.362;6.588;2023-03-07T08:02:47;46.44;41.68;62.37;;
76767;Laerm;65707;52.362;6.588;2023-03-07T08:05:15;50.07;42.69;70.83;;
76767;Laerm;65707;52.362;6.588;2023-03-07T08:07:43;55.39;41.99;74.40;;
76767;Laerm;65707;52.362;6.588;2023-03-07T08:10:12;59.94;42.00;77.86;;
76767;Laerm;65707;52.362;6.588;2023-03-07T08:12:42;47.21;41.29;69.50;;
76767;Laerm;65707;52.362;6.588;2023-03-07T08:15:10;69.77;41.11;81.43;;
76767;Laerm;65707;52.362;6.588;2023-03-07T08:17:37;46.94;40.15;59.81;;
76767;Laerm;65707;52.362;6.588;2023-03-07T08:20:05;57.87;40.99;75.34;;
76767;Laerm;65707;52.362;6.588;2023-03-07T08:22:37;48.60;41.26;66.17;;
76767;Laerm;65707;52.362;6.588;2023-03-07T08:25:06;63.48;41.44;79.02;;
76767;Laerm;65707;52.362;6.588;2023-03-07T08:27:33;46.51;40.90;60.52;;
76767;Laerm;65707;52.362;6.588;2023-03-07T08:30:02;52.51;40.45;70.87;;
76767;Laerm;65707;52.362;6.588;2023-03-07T08:32:29;52.41;41.40;70.01;;
76767;Laerm;65707;52.362;6.588;2023-03-07T08:34:56;45.61;41.20;56.27;;
76767;Laerm;65707;52.362;6.588;2023-03-07T08:37:23;55.71;41.02;72.95;;
76767;Laerm;65707;52.362;6.588;2023-03-07T08:39:50;46.28;39.88;58.46;;
76767;Laerm;65707;52.362;6.588;2023-03-07T08:42:16;61.54;41.08;77.04;;
76767;Laerm;65707;52.362;6.588;2023-03-07T08:44:43;46.41;39.66;59.15;;
76767;Laerm;65707;52.362;6.588;2023-03-07T08:47:11;46.11;40.08;63.96;;
76767;Laerm;65707;52.362;6.588;2023-03-07T08:49:39;48.47;39.22;65.91;;
76767;Laerm;65707;52.362;6.588;2023-03-07T08:52:06;61.68;39.93;78.65;;
76767;Laerm;65707;52.362;6.588;2023-03-07T08:54:32;50.05;39.45;65.85;;
76767;Laerm;65707;52.362;6.588;2023-03-07T08:56:59;47.89;40.24;63.46;;
76767;Laerm;65707;52.362;6.588;2023-03-07T08:59:26;51.57;41.85;70.45;;
76767;Laerm;65707;52.362;6.588;2023-03-07T09:01:55;51.85;39.44;69.47;;
76767;Laerm;65707;52.362;6.588;2023-03-07T09:04:24;47.64;42.11;63.31;;
76767;Laerm;65707;52.362;6.588;2023-03-07T09:06:51;57.45;41.38;75.69;;
76767;Laerm;65707;52.362;6.588;2023-03-07T09:09:17;55.01;41.24;71.25;;
76767;Laerm;65707;52.362;6.588;2023-03-07T09:11:44;60.01;39.76;77.44;;
76767;Laerm;65707;52.362;6.588;2023-03-07T09:14:11;48.25;40.73;65.83;;
76767;Laerm;65707;52.362;6.588;2023-03-07T09:16:38;47.00;39.53;59.31;;
76767;Laerm;65707;52.362;6.588;2023-03-07T09:19:05;56.49;39.57;76.40;;
76767;Laerm;65707;52.362;6.588;2023-03-07T09:21:33;47.15;40.50;57.37;;
76767;Laerm;65707;52.362;6.588;2023-03-07T09:24:00;50.09;41.89;67.72;;
76767;Laerm;65707;52.362;6.588;2023-03-07T09:26:27;54.51;42.07;74.14;;
76767;Laerm;65707;52.362;6.588;2023-03-07T09:28:54;51.58;42.13;70.23;;
76767;Laerm;65707;52.362;6.588;2023-03-07T09:31:21;56.49;42.55;72.43;;
76767;Laerm;65707;52.362;6.588;2023-03-07T09:33:48;47.18;41.29;59.52;;
76767;Laerm;65707;52.362;6.588;2023-03-07T09:36:15;46.37;41.40;55.73;;
76767;Laerm;65707;52.362;6.588;2023-03-07T09:38:46;55.45;41.48;74.01;;
76767;Laerm;65707;52.362;6.588;2023-03-07T09:41:48;56.87;41.46;76.12;;
76767;Laerm;65707;52.362;6.588;2023-03-07T09:44:35;61.25;40.93;79.59;;
76767;Laerm;65707;52.362;6.588;2023-03-07T09:47:34;47.24;41.08;57.99;;
76767;Laerm;65707;52.362;6.588;2023-03-07T09:50:11;58.78;41.22;77.55;;
76767;Laerm;65707;52.362;6.588;2023-03-07T09:52:41;56.08;41.17;81.40;;
76767;Laerm;65707;52.362;6.588;2023-03-07T09:55:14;55.10;40.60;74.78;;
76767;Laerm;65707;52.362;6.588;2023-03-07T09:57:48;47.25;40.90;60.86;;
76767;Laerm;65707;52.362;6.588;2023-03-07T10:00:21;56.50;40.73;71.71;;
76767;Laerm;65707;52.362;6.588;2023-03-07T10:02:55;46.06;40.01;58.49;;
76767;Laerm;65707;52.362;6.588;2023-03-07T10:05:36;51.96;40.67;65.55;;
76767;Laerm;65707;52.362;6.588;2023-03-07T10:08:05;57.63;40.39;75.31;;
76767;Laerm;65707;52.362;6.588;2023-03-07T10:10:40;60.72;42.07;77.44;;
76767;Laerm;65707;52.362;6.588;2023-03-07T10:13:26;46.40;39.22;57.03;;
76767;Laerm;65707;52.362;6.588;2023-03-07T10:16:00;47.11;40.22;61.47;;
76767;Laerm;65707;52.362;6.588;2023-03-07T10:18:49;45.01;39.17;58.23;;
76767;Laerm;65707;52.362;6.588;2023-03-07T10:21:27;63.66;39.52;78.89;;
76767;Laerm;65707;52.362;6.588;2023-03-07T10:24:21;46.45;39.34;57.93;;
76767;Laerm;65707;52.362;6.588;2023-03-07T10:26:59;46.32;39.32;57.59;;
76767;Laerm;65707;52.362;6.588;2023-03-07T10:29:38;54.20;39.94;71.43;;
76767;Laerm;65707;52.362;6.588;2023-03-07T10:32:30;48.10;40.59;61.07;;
76767;Laerm;65707;52.362;6.588;2023-03-07T10:35:11;46.86;39.09;57.86;;
76767;Laerm;65707;52.362;6.588;2023-03-07T10:37:47;53.00;41.19;72.32;;
76767;Laerm;65707;52.362;6.588;2023-03-07T10:40:23;56.87;40.92;76.28;;
76767;Laerm;65707;52.362;6.588;2023-03-07T10:42:53;46.00;41.01;55.46;;
76767;Laerm;65707;52.362;6.588;2023-03-07T10:45:23;46.65;40.32;58.65;;
76767;Laerm;65707;52.362;6.588;2023-03-07T10:47:52;45.92;41.22;55.52;;
76767;Laerm;65707;52.362;6.588;2023-03-07T10:50:30;59.67;40.14;77.61;;
76767;Laerm;65707;52.362;6.588;2023-03-07T10:53:08;53.51;40.68;72.25;;
76767;Laerm;65707;52.362;6.588;2023-03-07T10:55:39;54.87;39.93;69.15;;
76767;Laerm;65707;52.362;6.588;2023-03-07T10:58:21;55.17;39.76;73.81;;
76767;Laerm;65707;52.362;6.588;2023-03-07T11:01:17;52.34;40.47;70.73;;
76767;Laerm;65707;52.362;6.588;2023-03-07T11:03:49;52.79;40.25;67.64;;
76767;Laerm;65707;52.362;6.588;2023-03-07T11:06:36;49.96;40.42;65.94;;
76767;Laerm;65707;52.362;6.588;2023-03-07T11:09:19;56.22;41.98;73.60;;
76767;Laerm;65707;52.362;6.588;2023-03-07T11:11:54;59.09;41.52;76.66;;
76767;Laerm;65707;52.362;6.588;2023-03-07T11:14:24;45.89;39.65;63.36;;
76767;Laerm;65707;52.362;6.588;2023-03-07T11:16:55;48.67;40.24;63.45;;
76767;Laerm;65707;52.362;6.588;2023-03-07T11:19:34;57.18;40.37;76.36;;
76767;Laerm;65707;52.362;6.588;2023-03-07T11:22:10;47.36;40.24;61.67;;
76767;Laerm;65707;52.362;6.588;2023-03-07T11:24:49;47.40;39.35;68.24;;
76767;Laerm;65707;52.362;6.588;2023-03-07T11:27:24;53.09;39.83;73.66;;
76767;Laerm;65707;52.362;6.588;2023-03-07T11:30:17;55.89;41.09;70.68;;
76767;Laerm;65707;52.362;6.588;2023-03-07T11:32:58;46.52;40.49;63.71;;
76767;Laerm;65707;52.362;6.588;2023-03-07T11:35:54;46.44;39.01;62.78;;
76767;Laerm;65707;52.362;6.588;2023-03-07T11:38:35;48.12;38.95;60.35;;
76767;Laerm;65707;52.362;6.588;2023-03-07T11:41:10;57.79;41.43;76.57;;
76767;Laerm;65707;52.362;6.588;2023-03-07T11:43:59;62.10;39.40;80.48;;
76767;Laerm;65707;52.362;6.588;2023-03-07T11:46:50;45.75;41.11;59.50;;
76767;Laerm;65707;52.362;6.588;2023-03-07T11:49:36;59.67;40.08;79.04;;
76767;Laerm;65707;52.362;6.588;2023-03-07T11:52:25;53.81;40.11;75.43;;
76767;Laerm;65707;52.362;6.588;2023-03-07T11:55:24;47.12;41.61;64.16;;
76767;Laerm;65707;52.362;6.588;2023-03-07T11:58:16;57.59;40.64;74.93;;
76767;Laerm;65707;52.362;6.588;2023-03-07T12:01:04;54.59;41.93;69.92;;
76767;Laerm;65707;52.362;6.588;2023-03-07T12:04:05;50.86;40.99;64.87;;
76767;Laerm;65707;52.362;6.588;2023-03-07T12:06:49;54.16;42.00;74.44;;
76767;Laerm;65707;52.362;6.588;2023-03-07T12:09:35;58.62;40.70;77.47;;
76767;Laerm;65707;52.362;6.588;2023-03-07T12:12:42;47.11;41.58;58.80;;
76767;Laerm;65707;52.362;6.588;2023-03-07T12:15:34;47.17;40.08;58.79;;
76767;Laerm;65707;52.362;6.588;2023-03-07T12:18:36;49.53;40.15;66.60;;
76767;Laerm;65707;52.362;6.588;2023-03-07T12:21:35;63.15;41.79;78.92;;
76767;Laerm;65707;52.362;6.588;2023-03-07T12:24:15;53.05;40.56;74.55;;
76767;Laerm;65707;52.362;6.588;2023-03-07T12:26:54;46.96;39.72;61.96;;
76767;Laerm;65707;52.362;6.588;2023-03-07T12:29:34;52.52;42.55;66.60;;
76767;Laerm;65707;52.362;6.588;2023-03-07T12:32:07;52.13;41.82;69.82;;
76767;Laerm;65707;52.362;6.588;2023-03-07T12:34:43;44.66;38.11;57.65;;
76767;Laerm;65707;52.362;6.588;2023-03-07T12:37:20;54.55;40.70;73.50;;
76767;Laerm;65707;52.362;6.588;2023-03-07T12:39:52;49.10;39.78;69.57;;
76767;Laerm;65707;52.362;6.588;2023-03-07T12:42:33;58.04;39.98;77.75;;
76767;Laerm;65707;52.362;6.588;2023-03-07T12:45:08;46.21;39.87;68.67;;
76767;Laerm;65707;52.362;6.588;2023-03-07T12:47:54;45.03;39.37;52.33;;
76767;Laerm;65707;52.362;6.588;2023-03-07T12:50:29;60.28;40.79;79.11;;
76767;Laerm;65707;52.362;6.588;2023-03-07T12:53:05;45.58;39.23;69.66;;
76767;Laerm;65707;52.362;6.588;2023-03-07T12:55:41;57.39;41.27;73.01;;
76767;Laerm;65707;52.362;6.588;2023-03-07T12:58:18;47.04;39.83;63.21;;
76767;Laerm;65707;52.362;6.588;2023-03-07T13:00:53;53.83;39.27;71.35;;
76767;Laerm;65707;52.362;6.588;2023-03-07T13:03:33;45.51;39.80;63.33;;
76767;Laerm;65707;52.362;6.588;2023-03-07T13:06:09;47.13;39.84;59.60;;
76767;Laerm;65707;52.362;6.588;2023-03-07T13:08:39;53.80;41.66;75.01;;
76767;Laerm;65707;52.362;6.588;2023-03-07T13:11:16;60.34;42.05;77.05;;
76767;Laerm;65707;52.362;6.588;2023-03-07T13:13:48;47.44;40.67;68.29;;
76767;Laerm;65707;52.362;6.588;2023-03-07T13:16:34;45.16;39.88;62.06;;
76767;Laerm;65707;52.362;6.588;2023-03-07T13:22:56;45.90;40.08;60.53;;
76767;Laerm;65707;52.362;6.588;2023-03-07T13:26:10;52.58;40.04;72.67;;
76767;Laerm;65707;52.362;6.588;2023-03-07T13:28:44;51.36;40.86;68.99;;
76767;Laerm;65707;52.362;6.588;2023-03-07T13:31:36;51.78;40.69;69.34;;
76767;Laerm;65707;52.362;6.588;2023-03-07T13:34:46;48.56;39.80;60.43;;
76767;Laerm;65707;52.362;6.588;2023-03-07T13:37:53;62.67;41.04;79.27;;
76767;Laerm;65707;52.362;6.588;2023-03-07T13:40:51;59.07;43.06;78.17;;
76767;Laerm;65707;52.362;6.588;2023-03-07T13:43:57;60.15;40.07;79.62;;
76767;Laerm;65707;52.362;6.588;2023-03-07T13:46:44;46.62;40.26;62.98;;
76767;Laerm;65707;52.362;6.588;2023-03-07T13:49:40;60.32;38.80;78.97;;
76767;Laerm;65707;52.362;6.588;2023-03-07T13:52:37;51.96;39.29;73.52;;
76767;Laerm;65707;52.362;6.588;2023-03-07T13:55:37;54.81;39.01;72.05;;
76767;Laerm;65707;52.362;6.588;2023-03-07T13:58:17;46.16;40.10;55.28;;
76767;Laerm;65707;52.362;6.588;2023-03-07T14:00:54;56.45;41.03;71.01;;
76767;Laerm;65707;52.362;6.588;2023-03-07T14:03:35;47.90;40.00;72.70;;
76767;Laerm;65707;52.362;6.588;2023-03-07T14:06:09;51.73;39.57;73.15;;
76767;Laerm;65707;52.362;6.588;2023-03-07T14:08:38;57.58;40.83;75.59;;
76767;Laerm;65707;52.362;6.588;2023-03-07T14:11:15;66.47;40.06;79.03;;
76767;Laerm;65707;52.362;6.588;2023-03-07T14:17:11;44.20;38.42;57.45;;
76767;Laerm;65707;52.362;6.588;2023-03-07T14:19:56;63.51;39.19;79.10;;